sensor_id;sensor_type;location;lat;lon;timestamp;P1;durP1;ratioP1;P2;durP2;ratioP2
28774;SDS011;15926;51.348;6.596;2022-08-21T00:01:47;4.90;;;3.90;;
28774;SDS011;15926;51.348;6.596;2022-08-21T00:04:18;8.20;;;4.25;;
28774;SDS011;15926;51.348;6.596;2022-08-21T00:06:45;4.88;;;4.28;;
28774;SDS011;15926;51.348;6.596;2022-08-21T00:09:11;4.05;;;3.67;;
28774;SDS011;15926;51.348;6.596;2022-08-21T00:11:37;5.00;;;4.30;;
28774;SDS011;15926;51.348;6.596;2022-08-21T00:14:04;4.65;;;3.80;;
28774;SDS011;15926;51.348;6.596;2022-08-21T00:16:31;7.95;;;3.97;;
28774;SDS011;15926;51.348;6.596;2022-08-21T00:18:57;6.88;;;4.90;;
28774;SDS011;15926;51.348;6.596;2022-08-21T00:21:23;6.85;;;4.30;;
28774;SDS011;15926;51.348;6.596;2022-08-21T00:23:52;4.97;;;4.55;;
28774;SDS011;15926;51.348;6.596;2022-08-21T00:26:19;6.25;;;4.20;;
28774;SDS011;15926;51.348;6.596;2022-08-21T00:28:45;4.63;;;3.95;;
28774;SDS011;15926;51.348;6.596;2022-08-21T00:31:11;6.03;;;4.75;;
28774;SDS011;15926;51.348;6.596;2022-08-21T00:33:37;8.15;;;4.32;;
28774;SDS011;15926;51.348;6.596;2022-08-21T00:36:03;7.22;;;4.30;;
28774;SDS011;15926;51.348;6.596;2022-08-21T00:38:30;8.05;;;4.85;;
28774;SDS011;15926;51.348;6.596;2022-08-21T00:40:57;7.03;;;4.68;;
28774;SDS011;15926;51.348;6.596;2022-08-21T00:43:25;4.28;;;3.70;;
28774;SDS011;15926;51.348;6.596;2022-08-21T00:45:52;6.45;;;4.13;;
28774;SDS011;15926;51.348;6.596;2022-08-21T00:48:19;5.97;;;4.18;;
28774;SDS011;15926;51.348;6.596;2022-08-21T00:50:50;5.97;;;4.72;;
28774;SDS011;15926;51.348;6.596;2022-08-21T00:53:17;4.68;;;4.10;;
28774;SDS011;15926;51.348;6.596;2022-08-21T00:55:43;6.38;;;4.00;;
28774;SDS011;15926;51.348;6.596;2022-08-21T00:58:11;7.15;;;4.60;;
28774;SDS011;15926;51.348;6.596;2022-08-21T01:00:39;5.70;;;4.50;;
28774;SDS011;15926;51.348;6.596;2022-08-21T01:03:08;9.35;;;4.57;;
28774;SDS011;15926;51.348;6.596;2022-08-21T01:05:34;5.38;;;4.63;;
28774;SDS011;15926;51.348;6.596;2022-08-21T01:08:01;4.53;;;4.13;;
28774;SDS011;15926;51.348;6.596;2022-08-21T01:10:27;8.18;;;4.72;;
28774;SDS011;15926;51.348;6.596;2022-08-21T01:12:54;8.50;;;5.07;;
28774;SDS011;15926;51.348;6.596;2022-08-21T01:15:21;7.45;;;4.72;;
28774;SDS011;15926;51.348;6.596;2022-08-21T01:17:49;9.13;;;4.40;;
28774;SDS011;15926;51.348;6.596;2022-08-21T01:20:15;4.65;;;4.25;;
28774;SDS011;15926;51.348;6.596;2022-08-21T01:22:41;4.82;;;4.40;;
28774;SDS011;15926;51.348;6.596;2022-08-21T01:25:08;7.75;;;4.80;;
28774;SDS011;15926;51.348;6.596;2022-08-21T01:27:34;6.57;;;4.82;;
28774;SDS011;15926;51.348;6.596;2022-08-21T01:30:08;4.90;;;4.40;;
28774;SDS011;15926;51.348;6.596;2022-08-21T01:32:34;8.35;;;4.60;;
28774;SDS011;15926;51.348;6.596;2022-08-21T01:35:01;7.80;;;4.40;;
28774;SDS011;15926;51.348;6.596;2022-08-21T01:37:27;4.68;;;4.18;;
28774;SDS011;15926;51.348;6.596;2022-08-21T01:39:53;6.55;;;5.13;;
28774;SDS011;15926;51.348;6.596;2022-08-21T01:42:19;4.50;;;4.10;;
28774;SDS011;15926;51.348;6.596;2022-08-21T01:44:45;5.05;;;4.63;;
28774;SDS011;15926;51.348;6.596;2022-08-21T01:47:12;7.72;;;5.20;;
28774;SDS011;15926;51.348;6.596;2022-08-21T01:49:38;7.63;;;4.63;;
28774;SDS011;15926;51.348;6.596;2022-08-21T01:52:05;5.85;;;4.88;;
28774;SDS011;15926;51.348;6.596;2022-08-21T01:54:31;6.65;;;4.55;;
28774;SDS011;15926;51.348;6.596;2022-08-21T01:56:57;9.80;;;5.00;;
28774;SDS011;15926;51.348;6.596;2022-08-21T01:59:23;5.00;;;4.50;;
28774;SDS011;15926;51.348;6.596;2022-08-21T02:01:49;6.60;;;5.10;;
28774;SDS011;15926;51.348;6.596;2022-08-21T02:04:16;7.70;;;5.22;;
28774;SDS011;15926;51.348;6.596;2022-08-21T02:06:42;5.03;;;4.50;;
28774;SDS011;15926;51.348;6.596;2022-08-21T02:09:09;9.52;;;5.53;;
28774;SDS011;15926;51.348;6.596;2022-08-21T02:11:35;7.15;;;4.93;;
28774;SDS011;15926;51.348;6.596;2022-08-21T02:14:05;4.80;;;4.20;;
28774;SDS011;15926;51.348;6.596;2022-08-21T02:16:31;9.23;;;4.63;;
28774;SDS011;15926;51.348;6.596;2022-08-21T02:18:57;7.50;;;5.28;;
28774;SDS011;15926;51.348;6.596;2022-08-21T02:21:23;6.10;;;4.60;;
28774;SDS011;15926;51.348;6.596;2022-08-21T02:23:49;5.38;;;4.88;;
28774;SDS011;15926;51.348;6.596;2022-08-21T02:26:15;5.78;;;4.97;;
28774;SDS011;15926;51.348;6.596;2022-08-21T02:28:41;5.85;;;4.93;;
28774;SDS011;15926;51.348;6.596;2022-08-21T02:31:07;12.93;;;5.38;;
28774;SDS011;15926;51.348;6.596;2022-08-21T02:33:33;5.47;;;4.90;;
28774;SDS011;15926;51.348;6.596;2022-08-21T02:36:00;8.63;;;4.82;;
28774;SDS011;15926;51.348;6.596;2022-08-21T02:38:28;5.22;;;4.50;;
28774;SDS011;15926;51.348;6.596;2022-08-21T02:40:55;5.80;;;5.30;;
28774;SDS011;15926;51.348;6.596;2022-08-21T02:43:25;7.30;;;5.13;;
28774;SDS011;15926;51.348;6.596;2022-08-21T02:45:54;4.88;;;4.47;;
28774;SDS011;15926;51.348;6.596;2022-08-21T02:48:21;7.28;;;5.00;;
28774;SDS011;15926;51.348;6.596;2022-08-21T02:50:51;7.78;;;4.75;;
28774;SDS011;15926;51.348;6.596;2022-08-21T02:53:17;8.60;;;5.30;;
28774;SDS011;15926;51.348;6.596;2022-08-21T02:55:44;6.00;;;5.32;;
28774;SDS011;15926;51.348;6.596;2022-08-21T02:58:11;8.70;;;5.32;;
28774;SDS011;15926;51.348;6.596;2022-08-21T03:00:38;5.93;;;5.30;;
28774;SDS011;15926;51.348;6.596;2022-08-21T03:03:04;6.93;;;5.25;;
28774;SDS011;15926;51.348;6.596;2022-08-21T03:05:31;7.88;;;5.25;;
28774;SDS011;15926;51.348;6.596;2022-08-21T03:07:58;5.93;;;5.32;;
28774;SDS011;15926;51.348;6.596;2022-08-21T03:10:25;8.15;;;5.28;;
28774;SDS011;15926;51.348;6.596;2022-08-21T03:12:51;7.68;;;5.35;;
28774;SDS011;15926;51.348;6.596;2022-08-21T03:15:18;8.23;;;6.40;;
28774;SDS011;15926;51.348;6.596;2022-08-21T03:17:45;7.57;;;5.93;;
28774;SDS011;15926;51.348;6.596;2022-08-21T03:20:12;10.80;;;5.75;;
28774;SDS011;15926;51.348;6.596;2022-08-21T03:22:39;9.25;;;5.82;;
28774;SDS011;15926;51.348;6.596;2022-08-21T03:25:05;5.88;;;5.35;;
28774;SDS011;15926;51.348;6.596;2022-08-21T03:27:31;7.50;;;6.00;;
28774;SDS011;15926;51.348;6.596;2022-08-21T03:29:59;6.00;;;5.50;;
28774;SDS011;15926;51.348;6.596;2022-08-21T03:32:25;7.13;;;6.40;;
28774;SDS011;15926;51.348;6.596;2022-08-21T03:34:51;9.50;;;6.13;;
28774;SDS011;15926;51.348;6.596;2022-08-21T03:37:17;7.25;;;6.38;;
28774;SDS011;15926;51.348;6.596;2022-08-21T03:39:43;6.32;;;5.63;;
28774;SDS011;15926;51.348;6.596;2022-08-21T03:42:10;6.45;;;5.93;;
28774;SDS011;15926;51.348;6.596;2022-08-21T03:44:37;9.75;;;7.30;;
28774;SDS011;15926;51.348;6.596;2022-08-21T03:47:04;7.78;;;6.28;;
28774;SDS011;15926;51.348;6.596;2022-08-21T03:49:31;6.82;;;6.25;;
28774;SDS011;15926;51.348;6.596;2022-08-21T03:51:57;6.13;;;5.53;;
28774;SDS011;15926;51.348;6.596;2022-08-21T03:54:26;7.43;;;6.72;;
28774;SDS011;15926;51.348;6.596;2022-08-21T03:56:56;7.05;;;6.22;;
28774;SDS011;15926;51.348;6.596;2022-08-21T03:59:22;8.68;;;6.95;;
28774;SDS011;15926;51.348;6.596;2022-08-21T04:01:53;6.97;;;6.18;;
28774;SDS011;15926;51.348;6.596;2022-08-21T04:04:19;7.03;;;6.43;;
28774;SDS011;15926;51.348;6.596;2022-08-21T04:06:45;7.55;;;5.72;;
28774;SDS011;15926;51.348;6.596;2022-08-21T04:09:11;6.28;;;5.68;;
28774;SDS011;15926;51.348;6.596;2022-08-21T04:11:37;6.93;;;6.18;;
28774;SDS011;15926;51.348;6.596;2022-08-21T04:14:03;9.27;;;6.60;;
28774;SDS011;15926;51.348;6.596;2022-08-21T04:16:29;6.85;;;6.25;;
28774;SDS011;15926;51.348;6.596;2022-08-21T04:18:55;7.65;;;6.85;;
28774;SDS011;15926;51.348;6.596;2022-08-21T04:21:22;8.15;;;6.13;;
28774;SDS011;15926;51.348;6.596;2022-08-21T04:23:48;8.18;;;7.40;;
28774;SDS011;15926;51.348;6.596;2022-08-21T04:26:14;7.55;;;6.85;;
28774;SDS011;15926;51.348;6.596;2022-08-21T04:28:40;8.52;;;7.28;;
28774;SDS011;15926;51.348;6.596;2022-08-21T04:31:06;10.70;;;9.15;;
28774;SDS011;15926;51.348;6.596;2022-08-21T04:33:33;10.82;;;9.73;;
28774;SDS011;15926;51.348;6.596;2022-08-21T04:35:59;9.77;;;8.85;;
28774;SDS011;15926;51.348;6.596;2022-08-21T04:38:26;9.40;;;8.48;;
28774;SDS011;15926;51.348;6.596;2022-08-21T04:40:52;13.35;;;9.07;;
28774;SDS011;15926;51.348;6.596;2022-08-21T04:43:18;9.60;;;8.75;;
28774;SDS011;15926;51.348;6.596;2022-08-21T04:45:47;12.00;;;9.00;;
28774;SDS011;15926;51.348;6.596;2022-08-21T04:48:14;9.68;;;8.70;;
28774;SDS011;15926;51.348;6.596;2022-08-21T04:50:46;10.77;;;9.30;;
28774;SDS011;15926;51.348;6.596;2022-08-21T04:53:14;11.05;;;9.82;;
28774;SDS011;15926;51.348;6.596;2022-08-21T04:55:41;13.00;;;10.63;;
28774;SDS011;15926;51.348;6.596;2022-08-21T04:58:08;12.65;;;11.02;;
28774;SDS011;15926;51.348;6.596;2022-08-21T05:00:35;14.70;;;10.73;;
28774;SDS011;15926;51.348;6.596;2022-08-21T05:03:02;11.75;;;10.45;;
28774;SDS011;15926;51.348;6.596;2022-08-21T05:05:30;12.90;;;11.48;;
28774;SDS011;15926;51.348;6.596;2022-08-21T05:07:57;13.60;;;11.85;;
28774;SDS011;15926;51.348;6.596;2022-08-21T05:10:25;15.60;;;12.43;;
28774;SDS011;15926;51.348;6.596;2022-08-21T05:12:51;13.98;;;11.68;;
28774;SDS011;15926;51.348;6.596;2022-08-21T05:15:19;12.57;;;11.30;;
28774;SDS011;15926;51.348;6.596;2022-08-21T05:17:45;14.02;;;11.40;;
28774;SDS011;15926;51.348;6.596;2022-08-21T05:20:12;12.90;;;11.48;;
28774;SDS011;15926;51.348;6.596;2022-08-21T05:22:38;15.35;;;12.57;;
28774;SDS011;15926;51.348;6.596;2022-08-21T05:25:05;13.88;;;11.02;;
28774;SDS011;15926;51.348;6.596;2022-08-21T05:27:31;14.80;;;11.52;;
28774;SDS011;15926;51.348;6.596;2022-08-21T05:29:58;18.10;;;12.48;;
28774;SDS011;15926;51.348;6.596;2022-08-21T05:32:24;16.98;;;11.80;;
28774;SDS011;15926;51.348;6.596;2022-08-21T05:34:52;12.90;;;10.40;;
28774;SDS011;15926;51.348;6.596;2022-08-21T05:37:18;12.45;;;9.27;;
28774;SDS011;15926;51.348;6.596;2022-08-21T05:39:44;22.23;;;9.57;;
28774;SDS011;15926;51.348;6.596;2022-08-21T05:42:10;18.10;;;9.02;;
28774;SDS011;15926;51.348;6.596;2022-08-21T05:44:36;12.13;;;7.40;;
28774;SDS011;15926;51.348;6.596;2022-08-21T05:47:03;14.02;;;6.75;;
28774;SDS011;15926;51.348;6.596;2022-08-21T05:49:29;12.18;;;6.63;;
28774;SDS011;15926;51.348;6.596;2022-08-21T05:51:55;13.93;;;6.47;;
28774;SDS011;15926;51.348;6.596;2022-08-21T05:54:21;9.98;;;6.03;;
28774;SDS011;15926;51.348;6.596;2022-08-21T05:56:47;10.10;;;5.80;;
28774;SDS011;15926;51.348;6.596;2022-08-21T05:59:13;12.02;;;6.05;;
28774;SDS011;15926;51.348;6.596;2022-08-21T06:01:39;11.02;;;5.15;;
28774;SDS011;15926;51.348;6.596;2022-08-21T06:04:06;9.68;;;5.30;;
28774;SDS011;15926;51.348;6.596;2022-08-21T06:06:32;7.70;;;5.13;;
28774;SDS011;15926;51.348;6.596;2022-08-21T06:08:58;8.88;;;5.03;;
28774;SDS011;15926;51.348;6.596;2022-08-21T06:11:24;7.43;;;5.03;;
28774;SDS011;15926;51.348;6.596;2022-08-21T06:13:50;8.75;;;4.95;;
28774;SDS011;15926;51.348;6.596;2022-08-21T06:16:16;10.73;;;4.63;;
28774;SDS011;15926;51.348;6.596;2022-08-21T06:18:43;9.45;;;4.95;;
28774;SDS011;15926;51.348;6.596;2022-08-21T06:21:10;14.35;;;5.57;;
28774;SDS011;15926;51.348;6.596;2022-08-21T06:23:36;10.27;;;4.45;;
28774;SDS011;15926;51.348;6.596;2022-08-21T06:26:03;6.38;;;4.35;;
28774;SDS011;15926;51.348;6.596;2022-08-21T06:28:30;7.90;;;4.60;;
28774;SDS011;15926;51.348;6.596;2022-08-21T06:30:56;12.48;;;4.50;;
28774;SDS011;15926;51.348;6.596;2022-08-21T06:33:22;6.47;;;4.20;;
28774;SDS011;15926;51.348;6.596;2022-08-21T06:35:48;5.47;;;4.22;;
28774;SDS011;15926;51.348;6.596;2022-08-21T06:38:14;5.32;;;3.75;;
28774;SDS011;15926;51.348;6.596;2022-08-21T06:40:40;10.70;;;4.22;;
28774;SDS011;15926;51.348;6.596;2022-08-21T06:43:08;9.40;;;3.45;;
28774;SDS011;15926;51.348;6.596;2022-08-21T06:45:34;6.65;;;2.88;;
28774;SDS011;15926;51.348;6.596;2022-08-21T06:48:00;16.88;;;3.88;;
28774;SDS011;15926;51.348;6.596;2022-08-21T06:50:27;8.18;;;3.55;;
28774;SDS011;15926;51.348;6.596;2022-08-21T06:53:00;7.57;;;2.65;;
28774;SDS011;15926;51.348;6.596;2022-08-21T06:55:26;7.28;;;2.55;;
28774;SDS011;15926;51.348;6.596;2022-08-21T06:57:52;7.90;;;2.90;;
28774;SDS011;15926;51.348;6.596;2022-08-21T07:00:18;8.75;;;2.85;;
28774;SDS011;15926;51.348;6.596;2022-08-21T07:02:45;6.63;;;2.22;;
28774;SDS011;15926;51.348;6.596;2022-08-21T07:05:11;5.65;;;2.33;;
28774;SDS011;15926;51.348;6.596;2022-08-21T07:07:37;6.03;;;2.85;;
28774;SDS011;15926;51.348;6.596;2022-08-21T07:10:03;5.70;;;2.08;;
28774;SDS011;15926;51.348;6.596;2022-08-21T07:12:29;7.18;;;2.00;;
28774;SDS011;15926;51.348;6.596;2022-08-21T07:14:56;3.78;;;1.70;;
28774;SDS011;15926;51.348;6.596;2022-08-21T07:17:23;8.02;;;2.35;;
28774;SDS011;15926;51.348;6.596;2022-08-21T07:19:49;6.20;;;2.20;;
28774;SDS011;15926;51.348;6.596;2022-08-21T07:22:17;7.47;;;1.92;;
28774;SDS011;15926;51.348;6.596;2022-08-21T07:24:44;5.30;;;1.90;;
28774;SDS011;15926;51.348;6.596;2022-08-21T07:27:10;2.38;;;1.40;;
28774;SDS011;15926;51.348;6.596;2022-08-21T07:29:36;7.15;;;2.05;;
28774;SDS011;15926;51.348;6.596;2022-08-21T07:32:02;3.55;;;1.65;;
28774;SDS011;15926;51.348;6.596;2022-08-21T07:34:28;5.47;;;1.77;;
28774;SDS011;15926;51.348;6.596;2022-08-21T07:36:55;4.05;;;1.50;;
28774;SDS011;15926;51.348;6.596;2022-08-21T07:39:21;6.22;;;1.60;;
28774;SDS011;15926;51.348;6.596;2022-08-21T07:41:47;9.15;;;1.90;;
28774;SDS011;15926;51.348;6.596;2022-08-21T07:44:13;4.30;;;1.40;;
28774;SDS011;15926;51.348;6.596;2022-08-21T07:46:39;3.17;;;1.38;;
28774;SDS011;15926;51.348;6.596;2022-08-21T07:49:05;4.95;;;1.55;;
28774;SDS011;15926;51.348;6.596;2022-08-21T07:51:31;5.47;;;1.10;;
28774;SDS011;15926;51.348;6.596;2022-08-21T07:53:58;5.00;;;1.63;;
28774;SDS011;15926;51.348;6.596;2022-08-21T07:56:25;4.57;;;1.52;;
28774;SDS011;15926;51.348;6.596;2022-08-21T07:58:51;4.93;;;1.25;;
28774;SDS011;15926;51.348;6.596;2022-08-21T08:01:17;2.70;;;1.30;;
28774;SDS011;15926;51.348;6.596;2022-08-21T08:03:44;5.30;;;1.70;;
28774;SDS011;15926;51.348;6.596;2022-08-21T08:06:10;4.68;;;1.10;;
28774;SDS011;15926;51.348;6.596;2022-08-21T08:08:40;5.75;;;1.33;;
28774;SDS011;15926;51.348;6.596;2022-08-21T08:11:07;3.10;;;1.40;;
28774;SDS011;15926;51.348;6.596;2022-08-21T08:13:39;6.32;;;1.63;;
28774;SDS011;15926;51.348;6.596;2022-08-21T08:16:05;2.47;;;1.13;;
28774;SDS011;15926;51.348;6.596;2022-08-21T08:18:32;5.63;;;1.40;;
28774;SDS011;15926;51.348;6.596;2022-08-21T08:20:58;6.32;;;1.50;;
28774;SDS011;15926;51.348;6.596;2022-08-21T08:23:24;2.50;;;0.90;;
28774;SDS011;15926;51.348;6.596;2022-08-21T08:25:51;6.43;;;1.20;;
28774;SDS011;15926;51.348;6.596;2022-08-21T08:28:17;3.78;;;1.08;;
28774;SDS011;15926;51.348;6.596;2022-08-21T08:30:46;3.20;;;1.08;;
28774;SDS011;15926;51.348;6.596;2022-08-21T08:33:14;1.88;;;0.90;;
28774;SDS011;15926;51.348;6.596;2022-08-21T08:35:45;3.58;;;1.40;;
28774;SDS011;15926;51.348;6.596;2022-08-21T08:38:11;4.47;;;1.20;;
28774;SDS011;15926;51.348;6.596;2022-08-21T08:40:46;3.47;;;1.20;;
28774;SDS011;15926;51.348;6.596;2022-08-21T08:43:13;2.45;;;1.05;;
28774;SDS011;15926;51.348;6.596;2022-08-21T08:45:42;2.50;;;0.80;;
28774;SDS011;15926;51.348;6.596;2022-08-21T08:48:09;4.82;;;2.08;;
28774;SDS011;15926;51.348;6.596;2022-08-21T08:53:06;3.35;;;0.98;;
28774;SDS011;15926;51.348;6.596;2022-08-21T08:55:33;2.13;;;0.90;;
28774;SDS011;15926;51.348;6.596;2022-08-21T08:58:00;1.70;;;0.90;;
28774;SDS011;15926;51.348;6.596;2022-08-21T09:00:27;3.55;;;1.80;;
28774;SDS011;15926;51.348;6.596;2022-08-21T09:02:55;7.47;;;2.97;;
28774;SDS011;15926;51.348;6.596;2022-08-21T09:05:26;9.45;;;4.40;;
28774;SDS011;15926;51.348;6.596;2022-08-21T09:07:56;4.47;;;1.92;;
28774;SDS011;15926;51.348;6.596;2022-08-21T09:15:32;5.68;;;2.47;;
28774;SDS011;15926;51.348;6.596;2022-08-21T09:18:04;3.33;;;1.10;;
28774;SDS011;15926;51.348;6.596;2022-08-21T09:23:13;1.98;;;0.90;;
28774;SDS011;15926;51.348;6.596;2022-08-21T09:28:09;2.50;;;1.00;;
28774;SDS011;15926;51.348;6.596;2022-08-21T09:30:37;7.10;;;4.32;;
28774;SDS011;15926;51.348;6.596;2022-08-21T09:33:06;3.20;;;1.10;;
28774;SDS011;15926;51.348;6.596;2022-08-21T09:35:32;2.70;;;0.98;;
28774;SDS011;15926;51.348;6.596;2022-08-21T09:38:04;3.28;;;1.30;;
28774;SDS011;15926;51.348;6.596;2022-08-21T09:43:06;2.20;;;0.90;;
28774;SDS011;15926;51.348;6.596;2022-08-21T09:45:33;3.42;;;1.30;;
28774;SDS011;15926;51.348;6.596;2022-08-21T09:48:12;3.95;;;1.10;;
28774;SDS011;15926;51.348;6.596;2022-08-21T09:50:39;3.72;;;1.20;;
28774;SDS011;15926;51.348;6.596;2022-08-21T09:53:13;5.30;;;1.48;;
28774;SDS011;15926;51.348;6.596;2022-08-21T09:55:47;13.48;;;5.75;;
28774;SDS011;15926;51.348;6.596;2022-08-21T09:58:47;3.00;;;1.27;;
28774;SDS011;15926;51.348;6.596;2022-08-21T10:01:15;4.13;;;1.30;;
28774;SDS011;15926;51.348;6.596;2022-08-21T10:03:43;2.70;;;1.25;;
28774;SDS011;15926;51.348;6.596;2022-08-21T10:06:09;2.45;;;1.40;;
28774;SDS011;15926;51.348;6.596;2022-08-21T10:08:38;4.80;;;1.80;;
28774;SDS011;15926;51.348;6.596;2022-08-21T10:11:07;2.30;;;1.30;;
28774;SDS011;15926;51.348;6.596;2022-08-21T10:19:02;3.58;;;0.90;;
28774;SDS011;15926;51.348;6.596;2022-08-21T10:34:13;2.53;;;0.80;;
28774;SDS011;15926;51.348;6.596;2022-08-21T10:37:05;3.20;;;0.90;;
28774;SDS011;15926;51.348;6.596;2022-08-21T10:39:40;2.42;;;0.85;;
28774;SDS011;15926;51.348;6.596;2022-08-21T10:45:03;5.85;;;0.90;;
28774;SDS011;15926;51.348;6.596;2022-08-21T10:53:11;2.58;;;0.60;;
28774;SDS011;15926;51.348;6.596;2022-08-21T10:55:16;1.75;;;0.70;;
28774;SDS011;15926;51.348;6.596;2022-08-21T11:00:14;4.18;;;0.95;;
28774;SDS011;15926;51.348;6.596;2022-08-21T11:02:42;2.45;;;0.88;;
28774;SDS011;15926;51.348;6.596;2022-08-21T11:05:18;3.75;;;1.10;;
28774;SDS011;15926;51.348;6.596;2022-08-21T11:07:48;1.45;;;0.80;;
28774;SDS011;15926;51.348;6.596;2022-08-21T11:12:44;1.27;;;0.70;;
28774;SDS011;15926;51.348;6.596;2022-08-21T11:17:50;3.67;;;0.80;;
28774;SDS011;15926;51.348;6.596;2022-08-21T11:25:21;1.50;;;0.70;;
28774;SDS011;15926;51.348;6.596;2022-08-21T11:30:20;1.95;;;0.60;;
28774;SDS011;15926;51.348;6.596;2022-08-21T11:38:26;3.60;;;0.88;;
28774;SDS011;15926;51.348;6.596;2022-08-21T11:41:12;1.67;;;0.85;;
28774;SDS011;15926;51.348;6.596;2022-08-21T11:43:41;3.03;;;1.15;;
28774;SDS011;15926;51.348;6.596;2022-08-21T11:49:36;6.88;;;0.93;;
28774;SDS011;15926;51.348;6.596;2022-08-21T11:54:28;3.67;;;1.10;;
28774;SDS011;15926;51.348;6.596;2022-08-21T11:57:01;1.30;;;0.60;;
28774;SDS011;15926;51.348;6.596;2022-08-21T11:59:35;2.30;;;0.82;;
28774;SDS011;15926;51.348;6.596;2022-08-21T12:02:02;3.67;;;0.80;;
28774;SDS011;15926;51.348;6.596;2022-08-21T12:04:34;2.20;;;0.60;;
28774;SDS011;15926;51.348;6.596;2022-08-21T12:07:13;4.15;;;0.90;;
28774;SDS011;15926;51.348;6.596;2022-08-21T12:09:39;1.65;;;0.70;;
28774;SDS011;15926;51.348;6.596;2022-08-21T12:12:13;2.63;;;0.73;;
28774;SDS011;15926;51.348;6.596;2022-08-21T12:14:48;1.67;;;0.63;;
28774;SDS011;15926;51.348;6.596;2022-08-21T12:17:22;2.88;;;1.00;;
28774;SDS011;15926;51.348;6.596;2022-08-21T12:19:58;1.58;;;0.90;;
28774;SDS011;15926;51.348;6.596;2022-08-21T12:22:35;2.35;;;0.90;;
28774;SDS011;15926;51.348;6.596;2022-08-21T12:25:11;1.70;;;0.70;;
28774;SDS011;15926;51.348;6.596;2022-08-21T12:27:45;2.13;;;0.90;;
28774;SDS011;15926;51.348;6.596;2022-08-21T12:30:20;1.77;;;0.70;;
28774;SDS011;15926;51.348;6.596;2022-08-21T12:32:54;2.30;;;0.70;;
28774;SDS011;15926;51.348;6.596;2022-08-21T12:35:25;2.85;;;1.05;;
28774;SDS011;15926;51.348;6.596;2022-08-21T12:37:56;1.88;;;0.60;;
28774;SDS011;15926;51.348;6.596;2022-08-21T12:40:23;1.08;;;0.70;;
28774;SDS011;15926;51.348;6.596;2022-08-21T12:42:54;3.15;;;0.73;;
28774;SDS011;15926;51.348;6.596;2022-08-21T12:45:34;1.70;;;0.90;;
28774;SDS011;15926;51.348;6.596;2022-08-21T12:50:51;1.02;;;0.60;;
28774;SDS011;15926;51.348;6.596;2022-08-21T12:53:25;1.40;;;0.77;;
28774;SDS011;15926;51.348;6.596;2022-08-21T12:55:53;1.73;;;0.60;;
28774;SDS011;15926;51.348;6.596;2022-08-21T12:58:24;3.15;;;0.70;;
28774;SDS011;15926;51.348;6.596;2022-08-21T13:00:52;3.42;;;0.90;;
28774;SDS011;15926;51.348;6.596;2022-08-21T13:03:18;4.18;;;1.17;;
28774;SDS011;15926;51.348;6.596;2022-08-21T13:05:44;1.83;;;0.82;;
28774;SDS011;15926;51.348;6.596;2022-08-21T13:08:11;1.95;;;0.93;;
28774;SDS011;15926;51.348;6.596;2022-08-21T13:10:39;7.63;;;0.90;;
28774;SDS011;15926;51.348;6.596;2022-08-21T13:13:17;2.75;;;0.80;;
28774;SDS011;15926;51.348;6.596;2022-08-21T13:15:45;2.25;;;0.75;;
28774;SDS011;15926;51.348;6.596;2022-08-21T13:18:19;5.93;;;1.20;;
28774;SDS011;15926;51.348;6.596;2022-08-21T13:20:45;2.92;;;1.10;;
28774;SDS011;15926;51.348;6.596;2022-08-21T13:23:25;8.30;;;1.55;;
28774;SDS011;15926;51.348;6.596;2022-08-21T13:25:51;2.42;;;0.85;;
28774;SDS011;15926;51.348;6.596;2022-08-21T13:28:17;4.20;;;1.00;;
28774;SDS011;15926;51.348;6.596;2022-08-21T13:30:53;2.55;;;1.00;;
28774;SDS011;15926;51.348;6.596;2022-08-21T13:33:21;3.85;;;0.80;;
28774;SDS011;15926;51.348;6.596;2022-08-21T13:38:27;1.58;;;0.80;;
28774;SDS011;15926;51.348;6.596;2022-08-21T13:41:36;2.97;;;1.00;;
28774;SDS011;15926;51.348;6.596;2022-08-21T13:43:49;3.83;;;0.90;;
28774;SDS011;15926;51.348;6.596;2022-08-21T13:46:24;3.33;;;0.85;;
28774;SDS011;15926;51.348;6.596;2022-08-21T13:48:52;2.80;;;0.90;;
28774;SDS011;15926;51.348;6.596;2022-08-21T13:51:19;1.80;;;0.80;;
28774;SDS011;15926;51.348;6.596;2022-08-21T13:53:46;4.07;;;0.70;;
28774;SDS011;15926;51.348;6.596;2022-08-21T13:56:27;4.22;;;0.80;;
28774;SDS011;15926;51.348;6.596;2022-08-21T13:58:54;2.83;;;0.98;;
28774;SDS011;15926;51.348;6.596;2022-08-21T14:01:22;2.65;;;0.80;;
28774;SDS011;15926;51.348;6.596;2022-08-21T14:03:50;3.80;;;1.23;;
28774;SDS011;15926;51.348;6.596;2022-08-21T14:06:20;2.25;;;0.77;;
28774;SDS011;15926;51.348;6.596;2022-08-21T14:08:55;2.10;;;0.93;;
28774;SDS011;15926;51.348;6.596;2022-08-21T14:11:22;3.45;;;0.90;;
28774;SDS011;15926;51.348;6.596;2022-08-21T14:13:49;1.95;;;0.75;;
28774;SDS011;15926;51.348;6.596;2022-08-21T14:16:21;2.83;;;0.90;;
28774;SDS011;15926;51.348;6.596;2022-08-21T14:23:42;1.65;;;0.65;;
28774;SDS011;15926;51.348;6.596;2022-08-21T14:26:09;3.08;;;0.93;;
28774;SDS011;15926;51.348;6.596;2022-08-21T14:28:39;3.92;;;1.15;;
28774;SDS011;15926;51.348;6.596;2022-08-21T14:31:14;1.77;;;1.00;;
28774;SDS011;15926;51.348;6.596;2022-08-21T14:33:40;1.67;;;0.88;;
28774;SDS011;15926;51.348;6.596;2022-08-21T14:36:06;1.10;;;0.80;;
28774;SDS011;15926;51.348;6.596;2022-08-21T14:38:34;1.45;;;0.90;;
28774;SDS011;15926;51.348;6.596;2022-08-21T14:41:03;2.70;;;0.90;;
28774;SDS011;15926;51.348;6.596;2022-08-21T14:43:30;2.22;;;0.80;;
28774;SDS011;15926;51.348;6.596;2022-08-21T14:45:56;2.20;;;0.93;;
28774;SDS011;15926;51.348;6.596;2022-08-21T14:48:22;3.92;;;0.88;;
28774;SDS011;15926;51.348;6.596;2022-08-21T14:50:49;6.68;;;0.90;;
28774;SDS011;15926;51.348;6.596;2022-08-21T14:53:15;3.63;;;1.00;;
28774;SDS011;15926;51.348;6.596;2022-08-21T14:55:41;4.25;;;0.90;;
28774;SDS011;15926;51.348;6.596;2022-08-21T14:58:26;3.25;;;0.98;;
28774;SDS011;15926;51.348;6.596;2022-08-21T15:00:52;1.55;;;0.70;;
28774;SDS011;15926;51.348;6.596;2022-08-21T15:03:19;3.42;;;0.90;;
28774;SDS011;15926;51.348;6.596;2022-08-21T15:05:47;2.10;;;0.77;;
28774;SDS011;15926;51.348;6.596;2022-08-21T15:08:13;2.85;;;1.23;;
28774;SDS011;15926;51.348;6.596;2022-08-21T15:10:39;3.17;;;1.00;;
28774;SDS011;15926;51.348;6.596;2022-08-21T15:13:05;1.73;;;0.90;;
28774;SDS011;15926;51.348;6.596;2022-08-21T15:15:42;2.28;;;0.90;;
28774;SDS011;15926;51.348;6.596;2022-08-21T15:18:09;2.33;;;0.90;;
28774;SDS011;15926;51.348;6.596;2022-08-21T15:20:35;2.90;;;1.38;;
28774;SDS011;15926;51.348;6.596;2022-08-21T15:23:02;1.65;;;0.80;;
28774;SDS011;15926;51.348;6.596;2022-08-21T15:25:28;2.03;;;0.98;;
28774;SDS011;15926;51.348;6.596;2022-08-21T15:27:54;2.92;;;1.08;;
28774;SDS011;15926;51.348;6.596;2022-08-21T15:30:21;4.07;;;1.10;;
28774;SDS011;15926;51.348;6.596;2022-08-21T15:32:47;2.90;;;0.95;;
28774;SDS011;15926;51.348;6.596;2022-08-21T15:35:13;3.33;;;1.15;;
28774;SDS011;15926;51.348;6.596;2022-08-21T15:37:39;2.80;;;1.15;;
28774;SDS011;15926;51.348;6.596;2022-08-21T15:40:06;1.17;;;0.80;;
28774;SDS011;15926;51.348;6.596;2022-08-21T15:42:32;3.45;;;1.10;;
28774;SDS011;15926;51.348;6.596;2022-08-21T15:44:58;2.90;;;0.90;;
28774;SDS011;15926;51.348;6.596;2022-08-21T15:47:27;3.80;;;1.00;;
28774;SDS011;15926;51.348;6.596;2022-08-21T15:49:54;2.08;;;1.10;;
28774;SDS011;15926;51.348;6.596;2022-08-21T15:52:20;3.65;;;1.00;;
28774;SDS011;15926;51.348;6.596;2022-08-21T15:54:47;3.40;;;0.90;;
28774;SDS011;15926;51.348;6.596;2022-08-21T15:57:14;2.28;;;0.98;;
28774;SDS011;15926;51.348;6.596;2022-08-21T15:59:42;3.03;;;0.82;;
28774;SDS011;15926;51.348;6.596;2022-08-21T16:02:10;2.35;;;1.00;;
28774;SDS011;15926;51.348;6.596;2022-08-21T16:04:38;2.78;;;1.23;;
28774;SDS011;15926;51.348;6.596;2022-08-21T16:07:04;6.82;;;1.58;;
28774;SDS011;15926;51.348;6.596;2022-08-21T16:09:30;5.05;;;0.93;;